createdAt,value
2019-05-07T00:02:22.499Z,-84
2019-05-07T00:04:53.985Z,-83
2019-05-07T00:07:26.289Z,-83
2019-05-07T00:09:58.161Z,-84
2019-05-07T00:12:32.290Z,-84
2019-05-07T00:15:04.788Z,-84
2019-05-07T00:17:36.720Z,-84
2019-05-07T00:20:08.585Z,-85
2019-05-07T00:22:41.932Z,-84
2019-05-07T00:25:14.464Z,-84
2019-05-07T00:27:46.936Z,-85
2019-05-07T00:30:18.879Z,-84
2019-05-07T00:32:55.090Z,-84
2019-05-07T00:35:32.405Z,-85
2019-05-07T00:38:08.541Z,-85
2019-05-07T00:40:52.016Z,-84
2019-05-07T00:43:27.560Z,-84
2019-05-07T00:46:22.598Z,-84
2019-05-07T00:48:54.530Z,-84
2019-05-07T00:51:33.723Z,-84
2019-05-07T00:54:06.431Z,-84
2019-05-07T00:56:38.653Z,-84
2019-05-07T00:59:12.921Z,-84
2019-05-07T01:01:44.387Z,-85
2019-05-07T01:04:16.915Z,-84
2019-05-07T01:06:48.826Z,-84
2019-05-07T01:09:22.736Z,-84
2019-05-07T01:11:54.691Z,-84
2019-05-07T01:14:26.936Z,-84
2019-05-07T01:16:59.162Z,-84
2019-05-07T01:19:32.876Z,-83
2019-05-07T01:22:04.871Z,-84
2019-05-07T01:24:37.059Z,-84
2019-05-07T01:27:09.610Z,-84
2019-05-07T01:29:43.023Z,-84
2019-05-07T01:32:34.583Z,-84
2019-05-07T01:35:32.703Z,-84
2019-05-07T01:38:04.643Z,-84
2019-05-07T01:40:36.867Z,-84
2019-05-07T01:43:08.732Z,-85
2019-05-07T01:45:49.175Z,-84
2019-05-07T01:48:18.705Z,-84
2019-05-07T01:50:52.579Z,-85
2019-05-07T01:53:25.289Z,-84
2019-05-07T01:55:57.928Z,-84
2019-05-07T01:58:29.865Z,-84
2019-05-07T02:01:02.852Z,-84
2019-05-07T02:03:52.781Z,-84
2019-05-07T02:06:33.700Z,-84
2019-05-07T02:09:34.174Z,-84
2019-05-07T02:12:22.226Z,-84
2019-05-07T02:14:54.609Z,-84
2019-05-07T02:17:27.466Z,-84
2019-05-07T02:19:59.672Z,-84
2019-05-07T02:22:32.112Z,-83
2019-05-07T02:25:04.506Z,-84
2019-05-07T02:27:36.584Z,-84
2019-05-07T02:30:08.460Z,-85
2019-05-07T02:32:43.383Z,-84
2019-05-07T02:35:14.826Z,-84
2019-05-07T02:37:56.575Z,-84
2019-05-07T02:40:34.888Z,-84
2019-05-07T02:43:07.611Z,-84
2019-05-07T02:46:21.394Z,-84
2019-05-07T02:49:06.480Z,-84
2019-05-07T02:51:44.395Z,-84
2019-05-07T02:54:27.756Z,-84
2019-05-07T02:57:02.890Z,-84
2019-05-07T02:59:33.942Z,-84
2019-05-07T03:02:05.882Z,-84
2019-05-07T03:04:43.515Z,-84
2019-05-07T03:07:15.355Z,-84
2019-05-07T03:09:47.271Z,-85
2019-05-07T03:12:19.140Z,-85
2019-05-07T03:14:53.839Z,-84
2019-05-07T03:17:25.266Z,-84
2019-05-07T03:19:59.430Z,-84
2019-05-07T03:22:33.855Z,-84
2019-05-07T03:25:22.520Z,-84
2019-05-07T03:27:54.063Z,-83
2019-05-07T03:30:46.135Z,-84
2019-05-07T03:33:37.705Z,-82
2019-05-07T03:36:17.376Z,-82
2019-05-07T03:38:49.879Z,-83
2019-05-07T03:41:27.496Z,-83
2019-05-07T03:44:03.726Z,-83
2019-05-07T03:46:52.777Z,-83
2019-05-07T03:49:13.678Z,-83
2019-05-07T03:51:45.713Z,-82
2019-05-07T03:54:18.481Z,-82
2019-05-07T03:56:52.824Z,-83
2019-05-07T03:59:24.404Z,-82
2019-05-07T04:01:56.294Z,-82
2019-05-07T04:04:28.148Z,-85
2019-05-07T04:07:03.487Z,-84
2019-05-07T04:09:35.684Z,-84
2019-05-07T04:12:09.169Z,-84
2019-05-07T04:14:43.165Z,-84
2019-05-07T04:17:22.457Z,-84
2019-05-07T04:19:53.231Z,-84
2019-05-07T04:22:28.858Z,-83
2019-05-07T04:25:23.973Z,-83
2019-05-07T04:28:08.129Z,-82
2019-05-07T04:30:43.472Z,-82
2019-05-07T04:33:16.561Z,-82
2019-05-07T04:35:54.293Z,-82
2019-05-07T04:38:26.965Z,-81
2019-05-07T04:40:59.167Z,-81
2019-05-07T04:43:33.648Z,-82
2019-05-07T04:46:05.790Z,-82
2019-05-07T04:48:38.011Z,-84
2019-05-07T04:51:12.650Z,-83
2019-05-07T04:53:45.039Z,-82
2019-05-07T04:56:16.895Z,-82
2019-05-07T04:58:48.859Z,-83
2019-05-07T05:01:23.563Z,-82
2019-05-07T05:03:56.009Z,-83
2019-05-07T05:06:27.853Z,-82
2019-05-07T05:09:02.789Z,-83
2019-05-07T05:11:33.865Z,-83
2019-05-07T05:14:07.970Z,-83
2019-05-07T05:16:39.329Z,-83
2019-05-07T05:19:12.620Z,-83
2019-05-07T05:21:55.014Z,-83
2019-05-07T05:24:37.388Z,-83
2019-05-07T05:27:09.537Z,-83
2019-05-07T05:29:42.936Z,-83
2019-05-07T05:32:15.606Z,-84
2019-05-07T05:34:48.281Z,-84
2019-05-07T05:37:22.550Z,-83
2019-05-07T05:40:05.266Z,-81
2019-05-07T05:42:34.999Z,-81
2019-05-07T05:45:09.292Z,-87
2019-05-07T05:47:44.559Z,-85
2019-05-07T05:50:15.346Z,-84
2019-05-07T05:52:53.078Z,-85
2019-05-07T05:55:25.894Z,-85
2019-05-07T05:58:16.290Z,-85
2019-05-07T06:01:06.155Z,-85
2019-05-07T06:03:55.499Z,-84
2019-05-07T06:06:35.226Z,-84
2019-05-07T06:09:29.270Z,-84
2019-05-07T06:12:32.987Z,-84
2019-05-07T06:15:18.543Z,-85
2019-05-07T06:18:25.675Z,-84
2019-05-07T06:21:25.961Z,-84
2019-05-07T06:24:02.271Z,-85
2019-05-07T06:26:37.934Z,-86
2019-05-07T06:29:11.933Z,-86
2019-05-07T06:31:45.547Z,-84
2019-05-07T06:34:17.878Z,-85
2019-05-07T06:36:50.013Z,-85
2019-05-07T06:39:26.458Z,-85
2019-05-07T06:42:16.473Z,-84
2019-05-07T06:45:03.253Z,-85
2019-05-07T06:47:35.117Z,-85
2019-05-07T06:50:07.215Z,-84
2019-05-07T06:52:39.505Z,-85
2019-05-07T06:55:12.167Z,-85
2019-05-07T06:57:44.140Z,-85
2019-05-07T07:00:35.415Z,-85
2019-05-07T07:03:17.750Z,-86
2019-05-07T07:06:18.346Z,-85
2019-05-07T07:08:56.672Z,-85
2019-05-07T07:11:44.201Z,-84
2019-05-07T07:14:16.489Z,-83
2019-05-07T07:16:48.693Z,-84
2019-05-07T07:19:23.124Z,-85
2019-05-07T07:21:55.882Z,-85
2019-05-07T07:24:28.372Z,-85
2019-05-07T07:27:02.390Z,-85
2019-05-07T07:29:36.931Z,-85
2019-05-07T07:32:09.954Z,-84
2019-05-07T07:34:47.500Z,-86
2019-05-07T07:37:28.335Z,-86
2019-05-07T07:40:34.458Z,-84
2019-05-07T07:43:07.268Z,-85
2019-05-07T07:45:39.271Z,-85
2019-05-07T07:48:13.165Z,-84
2019-05-07T07:50:44.738Z,-85
2019-05-07T07:53:17.315Z,-86
2019-05-07T07:56:08.105Z,-84
2019-05-07T07:58:53.263Z,-85
2019-05-07T08:01:44.237Z,-84
2019-05-07T08:04:17.854Z,-85
2019-05-07T08:07:03.180Z,-86
2019-05-07T08:09:36.113Z,-86
2019-05-07T08:12:07.988Z,-86
2019-05-07T08:14:42.733Z,-86
2019-05-07T08:17:14.325Z,-85
2019-05-07T08:19:46.263Z,-86
2019-05-07T08:22:18.122Z,-85
2019-05-07T08:24:51.951Z,-85
2019-05-07T08:27:24.032Z,-85
2019-05-07T08:29:56.216Z,-85
2019-05-07T08:32:42.652Z,-85
2019-05-07T08:35:23.140Z,-85
2019-05-07T08:37:55.679Z,-85
2019-05-07T08:40:27.578Z,-85
2019-05-07T08:43:00.400Z,-85
2019-05-07T08:45:52.458Z,-86
2019-05-07T08:48:33.479Z,-85
2019-05-07T08:51:06.145Z,-85
2019-05-07T08:53:38.369Z,-85
2019-05-07T08:56:12.450Z,-84
2019-05-07T08:58:45.104Z,-84
2019-05-07T09:01:17.456Z,-84
2019-05-07T09:03:51.739Z,-84
2019-05-07T09:06:33.947Z,-84
2019-05-07T09:09:13.560Z,-84
2019-05-07T09:11:46.315Z,-84
2019-05-07T09:14:18.709Z,-84
2019-05-07T09:16:52.730Z,-84
2019-05-07T09:19:25.002Z,-85
2019-05-07T09:21:57.688Z,-84
2019-05-07T09:24:29.845Z,-84
2019-05-07T09:27:12.237Z,-84
2019-05-07T09:30:02.838Z,-86
2019-05-07T09:33:03.895Z,-86
2019-05-07T09:35:49.404Z,-85
2019-05-07T09:38:22.310Z,-86
2019-05-07T09:40:56.845Z,-85
2019-05-07T09:43:27.994Z,-86
2019-05-07T09:45:59.837Z,-86
2019-05-07T09:48:33.742Z,-86
2019-05-07T09:51:05.295Z,-86
2019-05-07T09:53:37.977Z,-85
2019-05-07T09:56:12.326Z,-85
2019-05-07T09:58:44.659Z,-85
2019-05-07T10:01:16.883Z,-86
2019-05-07T10:03:51.747Z,-86
2019-05-07T10:06:23.804Z,-86
2019-05-07T10:08:55.708Z,-85
2019-05-07T10:11:49.446Z,-86
2019-05-07T10:14:22.411Z,-86
2019-05-07T10:17:08.563Z,-85
2019-05-07T10:19:41.737Z,-85
2019-05-07T10:22:14.151Z,-85
2019-05-07T10:24:46.456Z,-86
2019-05-07T10:27:19.115Z,-86
2019-05-07T10:29:53.036Z,-86
2019-05-07T10:32:24.902Z,-86
2019-05-07T10:34:57.229Z,-86
2019-05-07T10:37:31.668Z,-85
2019-05-07T10:40:03.635Z,-86
2019-05-07T10:42:35.836Z,-85
2019-05-07T10:45:26.802Z,-86
2019-05-07T10:48:17.575Z,-85
2019-05-07T10:50:51.746Z,-85
2019-05-07T10:53:23.648Z,-85
2019-05-07T10:55:55.821Z,-86
2019-05-07T10:58:27.667Z,-86
2019-05-07T11:00:59.951Z,-86
2019-05-07T11:03:32.446Z,-86
2019-05-07T11:06:05.569Z,-85
2019-05-07T11:08:37.975Z,-85
2019-05-07T11:11:10.472Z,-86
2019-05-07T11:13:42.593Z,-85
2019-05-07T11:16:16.148Z,-86
2019-05-07T11:18:51.618Z,-86
2019-05-07T11:21:33.408Z,-86
2019-05-07T11:24:05.770Z,-86
2019-05-07T11:26:37.760Z,-86
2019-05-07T11:29:10.195Z,-86
2019-05-07T11:31:42.719Z,-86
2019-05-07T11:34:14.965Z,-86
2019-05-07T11:36:47.313Z,-86
2019-05-07T11:39:19.193Z,-86
2019-05-07T11:42:19.255Z,-87
2019-05-07T11:44:54.793Z,-87
2019-05-07T11:47:28.819Z,-86
2019-05-07T11:50:22.461Z,-86
2019-05-07T11:53:03.049Z,-86
2019-05-07T11:55:34.911Z,-86
2019-05-07T11:58:07.571Z,-86
2019-05-07T12:01:12.535Z,-86
2019-05-07T12:03:44.874Z,-86
2019-05-07T12:06:16.730Z,-86
2019-05-07T12:08:51.913Z,-86
2019-05-07T12:11:23.705Z,-86
2019-05-07T12:13:57.364Z,-86
2019-05-07T12:16:32.140Z,-86
2019-05-07T12:19:04.613Z,-86
2019-05-07T12:21:36.861Z,-86
2019-05-07T12:24:12.933Z,-85
2019-05-07T12:26:45.512Z,-86
2019-05-07T12:29:18.003Z,-86
2019-05-07T12:32:07.635Z,-86
2019-05-07T12:34:43.234Z,-85
2019-05-07T12:37:15.554Z,-86
2019-05-07T12:39:48.091Z,-86
2019-05-07T12:42:22.224Z,-85
2019-05-07T12:44:54.337Z,-86
2019-05-07T12:47:26.505Z,-85
2019-05-07T12:49:59.181Z,-86
2019-05-07T12:52:43.908Z,-85
2019-05-07T12:55:47.526Z,-85
2019-05-07T12:58:21.818Z,-86
2019-05-07T13:01:01.818Z,-86
2019-05-07T13:03:45.721Z,-85
2019-05-07T13:06:18.214Z,-84
2019-05-07T13:08:52.209Z,-85
2019-05-07T13:11:24.598Z,-83
2019-05-07T13:13:56.488Z,-85
2019-05-07T13:16:28.666Z,-85
2019-05-07T13:19:01.908Z,-85
2019-05-07T13:21:46.408Z,-85
2019-05-07T13:24:08.364Z,-85
2019-05-07T13:26:42.615Z,-86
2019-05-07T13:29:14.904Z,-86
2019-05-07T13:31:47.633Z,-85
2019-05-07T13:34:19.493Z,-86
2019-05-07T13:36:55.880Z,-86
2019-05-07T13:39:32.687Z,-85
2019-05-07T13:42:13.962Z,-85
2019-05-07T13:44:53.166Z,-84
2019-05-07T13:47:36.970Z,-86
2019-05-07T13:50:11.940Z,-87
2019-05-07T13:52:43.943Z,-86
2019-05-07T13:55:16.330Z,-86
2019-05-07T13:57:48.211Z,-85
2019-05-07T14:00:27.956Z,-86
2019-05-07T14:02:59.855Z,-86
2019-05-07T14:05:32.530Z,-86
2019-05-07T14:08:04.828Z,-86
2019-05-07T14:10:37.499Z,-86
2019-05-07T14:13:15.021Z,-87
2019-05-07T14:16:03.180Z,-86
2019-05-07T14:18:36.638Z,-86
2019-05-07T14:21:09.038Z,-87
2019-05-07T14:23:42.780Z,-87
2019-05-07T14:26:15.089Z,-87
2019-05-07T14:28:47.084Z,-86
2019-05-07T14:31:20.069Z,-86
2019-05-07T14:33:58.368Z,-86
2019-05-07T14:36:39.426Z,-86
2019-05-07T14:39:11.685Z,-86
2019-05-07T14:41:43.623Z,-87
2019-05-07T14:44:17.311Z,-87
2019-05-07T14:46:51.564Z,-87
2019-05-07T14:49:23.526Z,-86
2019-05-07T14:51:55.977Z,-86
2019-05-07T14:54:28.675Z,-85
2019-05-07T14:57:02.239Z,-85
2019-05-07T14:59:34.145Z,-87
2019-05-07T15:02:06.035Z,-85
2019-05-07T15:04:38.509Z,-85
2019-05-07T15:07:11.969Z,-84
2019-05-07T15:09:44.423Z,-85
2019-05-07T15:12:16.612Z,-85
2019-05-07T15:14:48.534Z,-86
2019-05-07T15:17:42.429Z,-86
2019-05-07T15:20:15.208Z,-85
2019-05-07T15:22:54.321Z,-87
2019-05-07T15:25:28.025Z,-86
2019-05-07T15:28:01.760Z,-86
2019-05-07T15:30:42.855Z,-87
2019-05-07T15:33:15.240Z,-87
2019-05-07T15:35:52.076Z,-87
2019-05-07T15:38:24.928Z,-85
2019-05-07T15:40:57.566Z,-85
2019-05-07T15:43:32.164Z,-84
2019-05-07T15:46:08.047Z,-85
2019-05-07T15:48:42.023Z,-84
2019-05-07T15:51:16.672Z,-85
2019-05-07T15:53:52.179Z,-85
2019-05-07T15:56:25.416Z,-85
2019-05-07T15:58:57.650Z,-86
2019-05-07T16:01:30.083Z,-85
2019-05-07T16:04:02.823Z,-86
2019-05-07T16:06:35.213Z,-85
2019-05-07T16:09:08.777Z,-86
2019-05-07T16:11:43.108Z,-85
2019-05-07T16:14:26.857Z,-85
2019-05-07T16:17:06.094Z,-86
2019-05-07T16:19:38.332Z,-84
2019-05-07T16:22:14.537Z,-87
2019-05-07T16:24:46.522Z,-86
2019-05-07T16:27:19.402Z,-85
2019-05-07T16:29:52.622Z,-87
2019-05-07T16:32:24.905Z,-85
2019-05-07T16:34:57.133Z,-87
2019-05-07T16:37:29.054Z,-86
2019-05-07T16:40:01.648Z,-86
2019-05-07T16:42:39.629Z,-88
2019-05-07T16:45:13.183Z,-87
2019-05-07T16:47:45.858Z,-87
2019-05-07T16:50:18.628Z,-88
2019-05-07T16:52:52.368Z,-87
2019-05-07T16:55:36.862Z,-88
2019-05-07T16:58:23.985Z,-89
2019-05-07T17:01:00.584Z,-86
2019-05-07T17:03:39.091Z,-86
2019-05-07T17:06:12.469Z,-86
2019-05-07T17:08:55.522Z,-88
2019-05-07T17:11:28.457Z,-87
2019-05-07T17:14:02.319Z,-88
2019-05-07T17:16:34.792Z,-88
2019-05-07T17:19:07.106Z,-88
2019-05-07T17:21:39.614Z,-88
2019-05-07T17:24:11.968Z,-88
2019-05-07T17:26:45.151Z,-88
2019-05-07T17:29:17.390Z,-88
2019-05-07T17:31:50.221Z,-87
2019-05-07T17:34:22.840Z,-87
2019-05-07T17:36:57.246Z,-87
2019-05-07T17:39:32.049Z,-87
2019-05-07T17:42:04.267Z,-86
2019-05-07T17:44:36.598Z,-86
2019-05-07T17:47:08.884Z,-86
2019-05-07T17:49:41.790Z,-87
2019-05-07T17:52:14.434Z,-86
2019-05-07T17:54:46.607Z,-86
2019-05-07T17:57:18.466Z,-87
2019-05-07T17:59:54.005Z,-87
2019-05-07T18:02:39.521Z,-86
2019-05-07T18:05:11.945Z,-86
2019-05-07T18:07:44.152Z,-87
2019-05-07T18:10:16.076Z,-87
2019-05-07T18:12:47.934Z,-88
2019-05-07T18:15:21.695Z,-87
2019-05-07T18:18:00.863Z,-86
2019-05-07T18:20:34.510Z,-86
2019-05-07T18:23:11.364Z,-86
2019-05-07T18:25:42.687Z,-87
2019-05-07T18:28:16.143Z,-87
2019-05-07T18:30:49.067Z,-87
2019-05-07T18:33:29.251Z,-87
2019-05-07T18:36:02.846Z,-85
2019-05-07T18:38:35.679Z,-86
2019-05-07T18:41:07.708Z,-86
2019-05-07T18:43:41.992Z,-86
2019-05-07T18:46:14.138Z,-86
2019-05-07T18:48:46.312Z,-85
2019-05-07T18:51:18.601Z,-85
2019-05-07T18:53:51.949Z,-86
2019-05-07T18:56:24.243Z,-87
2019-05-07T18:58:56.508Z,-87
2019-05-07T19:01:32.709Z,-87
2019-05-07T19:04:04.564Z,-87
2019-05-07T19:06:36.527Z,-87
2019-05-07T19:09:09.944Z,-87
2019-05-07T19:11:42.785Z,-87
2019-05-07T19:14:15.651Z,-87
2019-05-07T19:16:47.958Z,-87
2019-05-07T19:19:22.135Z,-87
2019-05-07T19:21:55.020Z,-87
2019-05-07T19:24:26.922Z,-87
2019-05-07T19:26:59.192Z,-87
2019-05-07T19:29:32.566Z,-86
2019-05-07T19:32:06.964Z,-86
2019-05-07T19:34:39.193Z,-86
2019-05-07T19:37:11.534Z,-86
2019-05-07T19:39:44.429Z,-86
2019-05-07T19:42:16.785Z,-86
2019-05-07T19:44:49.063Z,-85
2019-05-07T19:47:23.234Z,-85
2019-05-07T19:49:54.861Z,-86
2019-05-07T19:52:26.759Z,-85
2019-05-07T19:55:01.694Z,-86
2019-05-07T19:57:38.355Z,-85
2019-05-07T20:00:12.239Z,-85
2019-05-07T20:02:47.140Z,-86
2019-05-07T20:05:19.703Z,-87
2019-05-07T20:07:55.609Z,-84
2019-05-07T20:10:34.845Z,-85
2019-05-07T20:13:11.856Z,-85
2019-05-07T20:15:42.918Z,-86
2019-05-07T20:18:15.622Z,-86
2019-05-07T20:20:48.101Z,-85
2019-05-07T20:23:20.295Z,-84
2019-05-07T20:25:52.890Z,-84
2019-05-07T20:28:25.552Z,-85
2019-05-07T20:30:57.670Z,-86
2019-05-07T20:33:32.525Z,-85
2019-05-07T20:36:04.232Z,-86
2019-05-07T20:38:36.708Z,-85
2019-05-07T20:41:09.196Z,-83
2019-05-07T20:43:42.859Z,-83
2019-05-07T20:46:15.652Z,-83
2019-05-07T20:48:48.401Z,-83
2019-05-07T20:51:22.951Z,-83
2019-05-07T20:54:13.630Z,-82
2019-05-07T20:56:52.659Z,-82
2019-05-07T20:59:24.561Z,-86
2019-05-07T21:01:56.409Z,-83
2019-05-07T21:04:28.386Z,-83
2019-05-07T21:07:02.130Z,-82
2019-05-07T21:09:34.595Z,-83
2019-05-07T21:12:06.714Z,-83
2019-05-07T21:14:38.693Z,-83
2019-05-07T21:17:11.970Z,-82
2019-05-07T21:19:44.707Z,-84
2019-05-07T21:22:16.816Z,-83
2019-05-07T21:24:49.327Z,-84
2019-05-07T21:27:21.859Z,-83
2019-05-07T21:29:54.050Z,-83
2019-05-07T21:32:25.901Z,-84
2019-05-07T21:34:59.315Z,-83
2019-05-07T21:37:32.381Z,-84
2019-05-07T21:40:04.732Z,-83
2019-05-07T21:42:37.474Z,-83
2019-05-07T21:45:09.484Z,-81
2019-05-07T21:47:41.923Z,-83
2019-05-07T21:50:14.090Z,-83
2019-05-07T21:52:51.479Z,-83
2019-05-07T21:55:34.683Z,-83
2019-05-07T21:58:24.542Z,-83
2019-05-07T22:01:05.072Z,-84
2019-05-07T22:03:36.935Z,-84
2019-05-07T22:06:10.579Z,-83
2019-05-07T22:08:43.504Z,-83
2019-05-07T22:11:16.364Z,-83
2019-05-07T22:13:48.622Z,-83
2019-05-07T22:16:22.214Z,-82
2019-05-07T22:18:55.995Z,-82
2019-05-07T22:21:27.950Z,-82
2019-05-07T22:23:59.773Z,-84
2019-05-07T22:26:32.481Z,-82
2019-05-07T22:29:05.002Z,-82
2019-05-07T22:31:53.544Z,-82
2019-05-07T22:34:33.378Z,-82
2019-05-07T22:37:05.721Z,-85
2019-05-07T22:39:37.691Z,-83
2019-05-07T22:42:11.846Z,-84
2019-05-07T22:44:43.950Z,-84
2019-05-07T22:47:22.588Z,-84
2019-05-07T22:49:54.825Z,-84
2019-05-07T22:52:27.175Z,-83
2019-05-07T22:54:59.562Z,-84
2019-05-07T22:58:08.747Z,-84
2019-05-07T23:00:49.134Z,-85
2019-05-07T23:03:22.871Z,-84
2019-05-07T23:05:56.627Z,-84
2019-05-07T23:08:29.424Z,-84
2019-05-07T23:11:02.830Z,-84
2019-05-07T23:13:35.208Z,-84
2019-05-07T23:16:08.042Z,-84
2019-05-07T23:18:42.884Z,-83
2019-05-07T23:21:14.287Z,-84
2019-05-07T23:23:46.574Z,-84
2019-05-07T23:26:18.437Z,-84
2019-05-07T23:28:51.872Z,-84
2019-05-07T23:31:23.867Z,-83
2019-05-07T23:33:56.345Z,-84
2019-05-07T23:36:28.516Z,-84
2019-05-07T23:39:02.607Z,-84
2019-05-07T23:41:44.612Z,-84
2019-05-07T23:44:18.156Z,-84
2019-05-07T23:46:51.962Z,-84
2019-05-07T23:49:24.353Z,-84
2019-05-07T23:51:56.806Z,-84
2019-05-07T23:54:31.731Z,-84
2019-05-07T23:57:08.741Z,-84
2019-05-07T23:59:36.844Z,-84
